Time;durP1;ratioP1;P1;durP2;ratioP2;P2;SDS_P1;SDS_P2;PMS_P1;PMS_P2;Temp;Humidity;BMP_temperature;BMP_pressure;BME280_temperature;BME280_humidity;BME280_pressure;Samples;Min_cycle;Max_cycle;Signal;HPM_P1;HPM_P2
2022/01/31 00:01:14;;;;;;;13.82;6.07;;;;;;;;;;6213572;23;20001;-77
2022/01/31 00:03:40;;;;;;;24.05;11.30;;;;;;;;;;6214612;23;20001;-77
2022/01/31 00:06:06;;;;;;;24.02;12.20;;;;;;;;;;6187832;23;20328;-76
2022/01/31 00:08:32;;;;;;;15.60;7.57;;;;;;;;;;6213612;23;20025;-77
2022/01/31 00:10:58;;;;;;;15.05;8.15;;;;;;;;;;6214205;23;20009;-77
2022/01/31 00:13:37;;;;;;;15.70;7.90;;;;;;;;;;6187453;23;20091;-77
2022/01/31 00:16:04;;;;;;;19.40;7.53;;;;;;;;;;6214507;23;20000;-76
2022/01/31 00:18:30;;;;;;;16.23;7.60;;;;;;;;;;6187708;23;20320;-75
2022/01/31 00:20:56;;;;;;;12.82;6.75;;;;;;;;;;6214544;23;20424;-76
2022/01/31 00:23:23;;;;;;;19.60;8.55;;;;;;;;;;6187599;23;20001;-76
2022/01/31 00:25:49;;;;;;;15.18;7.93;;;;;;;;;;6214096;23;20039;-76
2022/01/31 00:28:15;;;;;;;19.88;8.45;;;;;;;;;;6187691;23;19997;-75
2022/01/31 00:30:41;;;;;;;17.25;7.28;;;;;;;;;;6213906;23;20440;-75
2022/01/31 00:33:07;;;;;;;24.05;8.52;;;;;;;;;;6213593;23;20007;-75
2022/01/31 00:35:33;;;;;;;16.65;7.80;;;;;;;;;;6187618;23;20023;-75
2022/01/31 00:38:00;;;;;;;19.20;9.02;;;;;;;;;;6186618;23;20000;-77
2022/01/31 00:40:26;;;;;;;22.35;8.48;;;;;;;;;;6214199;23;20067;-76
2022/01/31 00:42:52;;;;;;;18.48;8.43;;;;;;;;;;6214198;23;20050;-75
2022/01/31 00:45:27;;;;;;;20.30;7.20;;;;;;;;;;6214304;23;20003;-77
2022/01/31 00:48:02;;;;;;;13.02;5.97;;;;;;;;;;6187759;23;20001;-76
2022/01/31 00:50:30;;;;;;;9.80;4.40;;;128.80;1536.00;;;;;;6187924;23;19997;-77
2022/01/31 00:52:56;;;;;;;15.45;5.65;;;128.70;1561.60;;;;;;6214146;23;20451;-76
2022/01/31 00:55:22;;;;;;;10.95;5.60;;;128.60;1561.60;;;;;;6187532;23;20119;-76
2022/01/31 00:57:47;;;;;;;12.52;5.43;;;128.50;1587.20;;;;;;6214489;23;20024;-77
2022/01/31 01:00:15;;;;;;;16.55;5.43;;;128.40;1612.80;;;;;;6214508;23;20040;-76
2022/01/31 01:02:41;;;;;;;15.15;5.38;;;128.40;1612.80;;;;;;6214488;23;20005;-76
2022/01/31 01:05:07;;;;;;;10.68;4.50;;;128.40;1587.20;;;;;;6214478;23;20067;-76
2022/01/31 01:07:33;;;;;;;7.53;4.05;;;128.30;1587.20;;;;;;6187616;23;20032;-75
2022/01/31 01:09:59;;;;;;;10.25;5.30;;;128.30;1587.20;;;;;;6187837;23;20005;-75
2022/01/31 01:12:24;;;;;;;10.75;3.95;;;128.30;1587.20;;;;;;6213667;23;20005;-75
2022/01/31 01:14:52;;;;;;;16.52;4.90;;;128.20;1587.20;;;;;;6187679;23;20000;-77
2022/01/31 01:17:18;;;;;;;10.43;4.65;;;128.20;1561.60;;;;;;6187639;23;19996;-76
2022/01/31 01:19:44;;;;;;;11.05;4.90;;;128.20;1612.80;;;;;;6214327;23;20004;-76
2022/01/31 01:22:10;;;;;;;17.55;5.78;;;128.10;1612.80;;;;;;6214319;23;20001;-77
2022/01/31 01:24:36;;;;;;;10.93;4.93;;;128.20;1561.60;;;;;;6214121;23;20012;-76
2022/01/31 01:27:02;;;;;;;14.43;5.63;;;128.10;1587.20;;;;;;6187631;23;20005;-76
2022/01/31 01:29:28;;;;;;;4.82;2.25;;;128.10;1587.20;;;;;;6187448;23;20005;-76
2022/01/31 01:31:54;;;;;;;10.20;6.18;;;128.10;1587.20;;;;;;6214113;23;20044;-77
2022/01/31 01:34:21;;;;;;;11.38;5.57;;;128.10;1561.60;;;;;;6214142;23;20001;-76
2022/01/31 01:36:50;;;;;;;14.80;6.57;;;128.10;1612.80;;;;;;6213818;23;19997;-76
2022/01/31 01:39:16;;;;;;;10.18;4.63;;;128.10;1587.20;;;;;;6214297;23;20020;-77
2022/01/31 01:41:43;;;;;;;12.27;4.18;;;128.00;1612.80;;;;;;6214288;23;19997;-76
2022/01/31 01:44:09;;;;;;;8.30;3.95;;;128.00;1612.80;;;;;;6187540;23;20001;-77
2022/01/31 01:46:34;;;;;;;9.63;4.03;;;103.30;1612.80;;;;;;6187815;23;20028;-76
2022/01/31 01:49:00;;;;;;;14.52;5.75;;;103.30;1612.80;;;;;;6187586;23;20400;-76
2022/01/31 01:51:26;;;;;;;12.80;4.75;;;128.00;1612.80;;;;;;6189365;23;20339;-76
2022/01/31 01:53:51;;;;;;;10.48;3.42;;;128.00;1587.20;;;;;;6216214;23;19996;-76
2022/01/31 01:56:17;;;;;;;11.25;3.78;;;128.00;1587.20;;;;;;6189227;23;20007;-76
2022/01/31 01:58:44;;;;;;;12.38;5.43;;;128.00;1612.80;;;;;;6216189;23;19996;-76
2022/01/31 02:01:12;;;;;;;14.95;6.03;;;103.30;1587.20;;;;;;6216199;23;19996;-75
2022/01/31 02:03:39;;;;;;;14.05;6.05;;;103.30;1587.20;;;;;;6189446;23;20076;-76
2022/01/31 02:06:06;;;;;;;14.38;6.07;;;103.30;1587.20;;;;;;6216098;23;19997;-76
2022/01/31 02:08:41;;;;;;;10.20;4.78;;;103.20;1612.80;;;;;;6216111;23;20071;-75
2022/01/31 02:11:11;;;;;;;10.25;3.92;;;103.20;1612.80;;;;;;6189131;23;20375;-77
2022/01/31 02:13:38;;;;;;;8.80;4.22;;;103.20;1587.20;;;;;;6215973;23;20427;-76
2022/01/31 02:16:08;;;;;;;10.25;4.45;;;103.30;1587.20;;;;;;6215916;23;20000;-76
2022/01/31 02:18:37;;;;;;;10.18;5.35;;;103.20;1587.20;;;;;;6215662;23;19997;-76
2022/01/31 02:21:03;;;;;;;12.82;5.35;;;103.30;1587.20;;;;;;6189264;23;20001;-76
2022/01/31 02:23:29;;;;;;;10.63;5.35;;;103.20;1612.80;;;;;;6215944;23;20003;-76
2022/01/31 02:26:04;;;;;;;13.45;5.07;;;103.20;1612.80;;;;;;6215933;23;20009;-77
2022/01/31 02:28:33;;;;;;;14.20;5.70;;;103.10;1638.40;;;;;;6189252;23;20099;-77
2022/01/31 02:30:59;;;;;;;13.00;4.88;;;103.00;1664.00;;;;;;6215609;23;20381;-76
2022/01/31 02:33:25;;;;;;;8.82;4.45;;;102.90;1664.00;;;;;;6188743;23;20012;-76
2022/01/31 02:35:56;;;;;;;12.48;4.03;;;103.00;1689.60;;;;;;6215654;23;19993;-75
2022/01/31 02:38:22;;;;;;;12.30;2.95;;;102.90;1664.00;;;;;;6215645;23;20332;-76
2022/01/31 02:40:50;;;;;;;9.55;4.78;;;102.90;1664.00;;;;;;6189028;23;20001;-76
2022/01/31 02:43:23;;;;;;;9.27;3.80;;;102.90;1664.00;;;;;;6188952;23;20075;-76
2022/01/31 02:45:49;;;;;;;;;;;102.90;1689.60;;;;;;6216144;23;20004;-76
2022/01/31 02:48:17;;;;;;;12.90;6.22;;;102.90;1664.00;;;;;;6215626;23;20201;-75
2022/01/31 02:50:44;;;;;;;17.38;6.57;;;102.80;1689.60;;;;;;6215433;23;20024;-76
2022/01/31 02:53:14;;;;;;;16.25;7.03;;;102.80;1689.60;;;;;;6215432;23;19997;-77
2022/01/31 02:55:43;;;;;;;22.63;9.20;;;102.70;1689.60;;;;;;6215706;23;20087;-75
2022/01/31 02:58:09;;;;;;;19.30;7.93;;;102.70;1689.60;;;;;;6189007;23;19997;-76
2022/01/31 03:00:36;;;;;;;22.17;7.82;;;102.60;1740.80;;;;;;6215398;23;20001;-77
2022/01/31 03:03:03;;;;;;;23.23;10.48;;;102.60;1715.20;;;;;;6214620;23;20432;-76
2022/01/31 03:05:28;;;;;;;12.30;6.45;;;102.50;1740.80;;;;;;6189009;23;20011;-76
2022/01/31 03:07:54;;;;;;;15.25;6.50;;;102.50;1740.80;;;;;;6188827;23;20071;-77
2022/01/31 03:10:20;;;;;;;15.85;6.28;;;102.60;1689.60;;;;;;6215490;23;19996;-76
2022/01/31 03:12:46;;;;;;;15.82;6.32;;;102.50;1715.20;;;;;;6188232;23;20020;-75
2022/01/31 03:15:11;;;;;;;15.60;6.03;;;102.50;1715.20;;;;;;6188863;23;20005;-76
2022/01/31 03:17:39;;;;;;;17.13;6.40;;;102.50;1689.60;;;;;;6215009;23;20309;-77
2022/01/31 03:20:05;;;;;;;9.05;4.15;;;102.50;1664.00;;;;;;6215117;23;20001;-75
2022/01/31 03:22:31;;;;;;;7.95;3.45;;;102.50;1664.00;;;;;;6188697;23;20440;-77
2022/01/31 03:24:57;;;;;;;12.02;4.82;;;102.60;1638.40;;;;;;6188507;23;20095;-76
2022/01/31 03:27:23;;;;;;;14.88;5.70;;;102.60;1638.40;;;;;;6214969;23;20425;-75
2022/01/31 03:29:48;;;;;;;14.25;5.88;;;102.50;1689.60;;;;;;6214813;23;20079;-76
2022/01/31 03:32:14;;;;;;;14.40;5.65;;;102.40;1715.20;;;;;;6188544;23;21075;-76
2022/01/31 03:34:40;;;;;;;12.75;6.00;;;102.40;1664.00;;;;;;6215207;23;19997;-76
2022/01/31 03:37:05;;;;;;;11.63;4.65;;;102.40;1715.20;;;;;;6188599;23;20494;-77
2022/01/31 03:39:31;;;;;;;9.95;5.60;;;102.40;1715.20;;;;;;6214771;23;20001;-77
2022/01/31 03:41:57;;;;;;;9.45;5.43;;;102.40;1715.20;;;;;;6215030;23;20043;-76
2022/01/31 03:44:22;;;;;;;13.48;6.10;;;102.40;1689.60;;;;;;6215002;23;20080;-77
2022/01/31 03:46:48;;;;;;;12.73;5.13;;;77.70;1689.60;;;;;;6188370;23;20001;-75
2022/01/31 03:49:14;;;;;;;10.07;3.65;;;102.40;1689.60;;;;;;6215098;23;20424;-77
2022/01/31 03:51:39;;;;;;;7.63;2.45;;;102.50;1664.00;;;;;;6188614;23;20017;-77
2022/01/31 03:54:05;;;;;;;11.95;4.20;;;102.40;1689.60;;;;;;6215193;23;20001;-77
2022/01/31 03:56:31;;;;;;;19.67;4.75;;;102.40;1689.60;;;;;;6215132;23;20433;-76
2022/01/31 03:58:57;;;;;;;18.08;7.28;;;77.60;1740.80;;;;;;6215038;23;19996;-77
2022/01/31 04:01:23;;;;;;;19.13;7.35;;;77.30;1868.80;;;;;;6214667;23;20447;-77
2022/01/31 04:03:49;;;;;;;12.48;7.70;;;;;;;;;;6215075;23;20000;-76
2022/01/31 04:06:15;;;;;;;16.77;6.72;;;;;;;;;;6214920;23;19997;-77
2022/01/31 04:08:42;;;;;;;11.65;5.75;;;;;;;;;;6214909;23;20047;-76
2022/01/31 04:11:10;;;;;;;10.18;6.15;;;;;;;;;;6214307;23;20451;-76
2022/01/31 04:13:36;;;;;;;10.57;5.35;;;;;;;;;;6187923;23;20012;-76
2022/01/31 04:16:02;;;;;;;15.00;5.85;;;;;;;;;;6187992;23;20005;-75
2022/01/31 04:18:28;;;;;;;11.95;4.88;;;;;;;;;;6188035;23;20024;-76
2022/01/31 04:20:54;;;;;;;11.27;5.28;;;;;;;;;;6214325;23;20079;-77
2022/01/31 04:23:22;;;;;;;9.80;4.65;;;;;;;;;;6188088;23;20088;-76
2022/01/31 04:28:21;;;;;;;16.85;6.65;;;;;;;;;;6214807;23;20001;-76
2022/01/31 04:30:58;;;;;;;12.18;6.28;;;;;;;;;;6214532;23;20003;-77
2022/01/31 04:33:24;;;;;;;15.85;7.88;;;;;;;;;;6214469;23;20983;-77
2022/01/31 04:35:50;;;;;;;13.40;6.32;;;;;;;;;;6214488;23;20043;-76
2022/01/31 04:38:17;;;;;;;17.77;7.22;;;;;;;;;;6214127;23;20428;-76
2022/01/31 04:40:43;;;;;;;19.45;9.98;;;;;;;;;;6187601;23;19996;-76
2022/01/31 04:43:09;;;;;;;22.13;9.75;;;;;;;;;;6214456;23;19996;-77
2022/01/31 04:45:36;;;;;;;23.75;11.63;;;;;;;;;;6214107;23;19989;-76
2022/01/31 04:48:02;;;;;;;13.48;7.68;;;;;;;;;;6213985;23;20379;-75
2022/01/31 04:50:28;;;;;;;17.45;7.45;;;;;;;;;;6214400;23;20084;-76
2022/01/31 04:52:54;;;;;;;19.33;7.63;;;;;;;;;;6214251;23;20047;-76
2022/01/31 04:55:20;;;;;;;14.77;7.63;;;;;;;;;;6213895;23;20313;-76
2022/01/31 04:57:46;;;;;;;19.42;8.40;;;;;;;;;;6214338;23;20004;-75
2022/01/31 05:00:12;;;;;;;27.25;11.85;;;;;;;;;;6213743;23;20433;-75
2022/01/31 05:02:38;;;;;;;34.17;16.30;;;;;;;;;;6214155;23;20031;-75
2022/01/31 05:05:05;;;;;;;33.35;16.13;;;;;;;;;;6214336;23;19997;-75
2022/01/31 05:07:32;;;;;;;51.22;23.00;;;;;;;;;;6213616;23;19997;-76
2022/01/31 05:09:58;;;;;;;28.10;13.13;;;;;;;;;;6213660;23;20000;-78
2022/01/31 05:12:26;;;;;;;26.75;11.75;;;;;;;;;;6213493;23;20008;-76
2022/01/31 05:14:52;;;;;;;28.02;13.18;;;;;;;;;;6213641;23;20027;-75
2022/01/31 05:17:18;;;;;;;21.42;10.02;;;;;;;;;;6213666;23;19996;-76
2022/01/31 05:19:44;;;;;;;18.95;8.50;;;;;;;;;;6186895;23;20005;-74
2022/01/31 05:22:10;;;;;;;16.42;7.93;;;;;;;;;;6213451;23;20297;-74
2022/01/31 05:24:36;;;;;;;20.58;8.88;;;;;;;;;;6212948;23;20453;-76
2022/01/31 05:27:02;;;;;;;15.13;7.95;;;;;;;;;;6213514;23;19997;-75
2022/01/31 05:29:28;;;;;;;31.55;15.85;;;;;;;;;;6213096;23;20297;-76
2022/01/31 05:31:54;;;;;;;25.63;12.27;;;;;;;;;;6186810;23;20019;-76
2022/01/31 05:34:23;;;;;;;23.83;12.55;;;;;;;;;;6187065;23;20005;-75
2022/01/31 05:36:54;;;;;;;27.17;11.85;;;;;;;;;;6213599;23;20001;-75
2022/01/31 05:39:21;;;;;;;31.48;14.45;;;;;;;;;;6213961;23;19999;-75
2022/01/31 05:41:47;;;;;;;36.80;16.08;;;;;;;;;;6187224;23;20000;-76
2022/01/31 05:44:13;;;;;;;26.70;10.90;;;;;;;;;;6213425;23;20004;-79
2022/01/31 05:46:39;;;;;;;30.20;12.45;;;;;;;;;;6187146;23;20336;-78
2022/01/31 05:49:05;;;;;;;31.25;14.90;;;;;;;;;;6213640;23;20030;-79
2022/01/31 05:51:31;;;;;;;18.33;10.13;;;;;;;;;;6187289;23;20048;-77
2022/01/31 05:53:57;;;;;;;31.20;11.80;;;;;;;;;;6187154;23;20416;-77
2022/01/31 05:56:23;;;;;;;23.40;11.35;;;;;;;;;;6187240;23;20336;-76
2022/01/31 05:58:50;;;;;;;15.30;8.18;;;;;;;;;;6213769;23;19997;-79
2022/01/31 06:01:17;;;;;;;113.28;65.35;;;;;;;;;;6213428;23;20008;-75
2022/01/31 06:03:43;;;;;;;28.17;13.70;;;;;;;;;;6187102;23;20047;-75
2022/01/31 06:06:09;;;;;;;25.67;11.38;;;;;;;;;;6213098;23;20039;-75
2022/01/31 06:08:35;;;;;;;31.17;15.50;;;;;;;;;;6186976;23;20039;-75
2022/01/31 06:11:01;;;;;;;25.38;13.38;;;;;;;;;;6187136;23;20016;-75
2022/01/31 06:13:32;;;;;;;19.30;11.65;;;;;;;;;;6187290;23;19997;-75
2022/01/31 06:15:58;;;;;;;62.05;36.67;;;;;;;;;;6213800;23;20000;-75
2022/01/31 06:18:24;;;;;;;53.63;25.55;;;;;;;;;;6187015;23;20424;-75
2022/01/31 06:20:51;;;;;;;51.63;31.35;;;;;;;;;;6186887;23;20013;-75
2022/01/31 06:23:17;;;;;;;41.28;22.70;;;;;;;;;;6213695;23;19993;-76
2022/01/31 06:25:44;;;;;;;43.35;21.25;;;;;;;;;;6213862;23;20080;-76
2022/01/31 06:28:10;;;;;;;46.65;21.58;;;;;;;;;;6213795;23;20062;-76
2022/01/31 06:30:36;;;;;;;34.28;18.10;;;;;;;;;;6213477;23;20005;-76
2022/01/31 06:33:02;;;;;;;41.78;18.90;;;;;;;;;;6212804;23;20341;-76
2022/01/31 06:35:28;;;;;;;35.20;16.35;;;;;;;;;;6186622;23;20005;-75
2022/01/31 06:37:54;;;;;;;31.42;14.85;;;;;;;;;;6214396;23;20047;-76
2022/01/31 06:40:21;;;;;;;37.95;20.15;;;;;;;;;;6214637;23;20064;-75
2022/01/31 06:42:47;;;;;;;48.85;26.73;;;;;;;;;;6215046;23;20001;-76
2022/01/31 06:45:14;;;;;;;40.00;20.15;;;;;;;;;;6215072;23;20063;-77
2022/01/31 06:47:40;;;;;;;38.72;19.33;;;;;;;;;;6215461;23;20004;-77
2022/01/31 06:50:07;;;;;;;37.15;19.50;;;;;;;;;;6215155;23;20071;-75
2022/01/31 06:52:37;;;;;;;32.92;17.92;;;;;;;;;;6214579;23;20015;-77
2022/01/31 06:55:05;;;;;;;41.47;20.27;;;;;;;;;;6188291;23;20007;-77
2022/01/31 06:57:34;;;;;;;48.08;23.45;;;;;;;;;;6214783;23;20046;-76
2022/01/31 07:00:08;;;;;;;53.97;22.10;;;;;;;;;;6188323;23;20032;-75
2022/01/31 07:02:34;;;;;;;32.67;17.58;;;;;;;;;;6213439;23;20008;-77
2022/01/31 07:05:00;;;;;;;40.15;17.08;;;;;;;;;;6214195;23;20429;-76
2022/01/31 07:07:27;;;;;;;33.30;17.33;;;;;;;;;;6214796;23;20008;-75
2022/01/31 07:09:53;;;;;;;41.13;22.40;;;;;;;;;;6188212;23;20003;-76
2022/01/31 07:12:23;;;;;;;74.10;35.13;;;;;;;;;;6186899;23;20009;-78
2022/01/31 07:14:49;;;;;;;44.42;25.95;;;;;;;;;;6187800;23;19996;-75
2022/01/31 07:17:15;;;;;;;37.38;19.05;;;;;;;;;;6187036;23;20030;-78
2022/01/31 07:19:42;;;;;;;30.80;14.68;;;;;;;;;;6187541;23;20005;-76
2022/01/31 07:22:12;;;;;;;25.67;15.38;;;;;;;;;;6187666;23;20007;-76
2022/01/31 07:27:05;;;;;;;88.97;44.17;;;;;;;;;;6214564;23;20005;-75
2022/01/31 07:29:31;;;;;;;104.15;51.65;;;;;;;;;;6188122;23;20007;-79
2022/01/31 07:31:58;;;;;;;77.88;46.63;;;;;;;;;;6187616;23;20008;-76
2022/01/31 07:34:25;;;;;;;40.38;19.95;;;;;;;;;;6214700;23;19996;-75
2022/01/31 07:36:51;;;;;;;43.97;25.52;;;;;;;;;;6214652;23;20019;-75
2022/01/31 07:39:18;;;;;;;51.58;30.52;;;;;;;;;;6188014;23;20001;-76
2022/01/31 07:41:45;;;;;;;56.65;31.05;;;;;;;;;;6214302;23;19992;-75
2022/01/31 07:44:11;;;;;;;47.65;26.33;;;;;;;;;;6214683;23;20004;-75
2022/01/31 07:46:37;;;;;;;44.40;22.88;;;;;;;;;;6187837;23;19996;-75
2022/01/31 07:49:04;;;;;;;40.70;21.50;;;;;;;;;;6187636;23;20000;-75
2022/01/31 07:51:30;;;;;;;48.72;28.30;;;;;;;;;;6187709;23;20095;-75
2022/01/31 07:53:56;;;;;;;50.55;29.30;;;;;;;;;;6214092;23;20003;-75
2022/01/31 07:56:22;;;;;;;59.10;29.90;;;;;;;;;;6187498;23;20012;-75
2022/01/31 07:58:48;;;;;;;67.85;38.92;;;;;;;;;;6214311;23;20036;-75
2022/01/31 08:01:15;;;;;;;70.40;39.38;;;;;;;;;;6187785;23;20005;-77
2022/01/31 08:03:41;;;;;;;60.47;37.00;;;;;;;;;;6214323;23;20004;-75
2022/01/31 08:06:07;;;;;;;88.85;46.05;;;;;;;;;;6214108;23;19997;-75
2022/01/31 08:08:35;;;;;;;80.13;47.22;;;;;;;;;;6214335;23;19997;-75
2022/01/31 08:11:02;;;;;;;103.38;55.03;;;;;;;;;;6187479;23;20063;-75
2022/01/31 08:13:28;;;;;;;107.28;59.40;;;;;;;;;;6212868;23;20008;-76
2022/01/31 08:18:34;;;;;;;99.43;56.72;;;;;;;;;;6214638;23;20005;-76
2022/01/31 08:21:00;;;;;;;89.13;50.10;;;;;;;;;;6187531;23;20091;-76
2022/01/31 08:23:26;;;;;;;87.07;49.65;;;;;;;;;;6213623;23;19992;-76
2022/01/31 08:25:52;;;;;;;81.05;49.00;;;;;;;;;;6213337;23;20009;-76
2022/01/31 08:28:27;;;;;;;86.70;53.50;;;;;;;;;;6213503;23;20003;-76
2022/01/31 08:31:05;;;;;;;81.45;52.08;;;;;;;;;;6213568;23;20005;-76
2022/01/31 08:36:05;;;;;;;88.35;49.78;;;;;;;;;;6213560;23;20004;-75
2022/01/31 08:38:31;;;;;;;81.55;52.72;;;;;;;;;;6186650;23;20043;-75
2022/01/31 08:40:59;;;;;;;86.30;51.53;;;;;;;;;;6214390;23;20428;-76
2022/01/31 08:43:25;;;;;;;97.15;52.90;;;;;;;;;;6214526;23;20042;-75
2022/01/31 08:45:55;;;;;;;84.93;52.75;;;;;;;;;;6185889;23;20317;-76
2022/01/31 08:48:21;;;;;;;97.88;52.65;;;;;;;;;;6186429;23;20063;-75
2022/01/31 08:50:47;;;;;;;74.78;45.60;;;;;;;;;;6213363;23;20130;-76
2022/01/31 08:53:13;;;;;;;94.55;52.97;;;;;;;;;;6210771;23;19997;-75
2022/01/31 08:55:40;;;;;;;73.70;46.17;;;;;;;;;;6211828;23;20000;-83
2022/01/31 08:58:07;;;;;;;68.82;43.13;;;;;;;;;;6187299;23;20080;-77
2022/01/31 09:00:34;;;;;;;73.47;43.97;;;;;;;;;;6211440;23;20016;-75
2022/01/31 09:05:36;;;;;;;64.30;35.70;;;;;;;;;;6213583;23;20001;-74
2022/01/31 09:08:02;;;;;;;66.43;36.70;;;;;;;;;;6212192;23;20043;-77
2022/01/31 09:10:28;;;;;;;77.50;39.25;;;;;;;;;;6212478;23;20424;-75
2022/01/31 09:12:54;;;;;;;94.25;46.72;;;;;;;;;;6185854;23;20012;-75
2022/01/31 09:15:21;;;;;;;52.13;35.08;;;;;;;;;;6212948;23;19999;-75
2022/01/31 09:17:48;;;;;;;67.35;38.05;;;;;;;;;;6185962;23;20436;-75
2022/01/31 09:20:14;;;;;;;66.65;36.08;;;;;;;;;;6212441;23;20341;-75
2022/01/31 09:22:41;;;;;;;70.53;38.45;;;;;;;;;;6211920;23;20455;-75
2022/01/31 09:25:07;;;;;;;63.50;36.13;;;;;;;;;;6185487;23;20043;-75
2022/01/31 09:27:34;;;;;;;56.53;30.63;;;;;;;;;;6212261;23;20533;-75
2022/01/31 09:30:00;;;;;;;54.75;33.33;;;;;;;;;;6212491;23;20007;-76
2022/01/31 09:32:26;;;;;;;47.00;26.58;;;;;;;;;;6213506;23;20040;-79
2022/01/31 09:34:53;;;;;;;55.95;30.70;;;;;;;;;;6186378;23;20032;-75
2022/01/31 09:37:21;;;;;;;53.70;28.35;;;;;;;;;;6212802;23;20004;-75
2022/01/31 09:39:48;;;;;;;57.60;31.35;;;;;;;;;;6187238;23;20000;-78
2022/01/31 09:42:20;;;;;;;50.67;27.45;;;;;;;;;;6185440;23;20269;-77
2022/01/31 09:47:24;;;;;;;48.97;24.77;;;;;;;;;;6213700;23;20004;-76
2022/01/31 09:49:51;;;;;;;52.90;28.80;;;;;;;;;;6213878;23;20001;-76
2022/01/31 09:52:17;;;;;;;41.50;23.90;;;;;;;;;;6186567;23;20016;-76
2022/01/31 09:54:47;;;;;;;55.28;29.23;;;;;;;;;;6186342;23;20328;-76
2022/01/31 09:57:14;;;;;;;49.35;24.15;;;;;;;;;;6187067;23;20516;-76
2022/01/31 09:59:40;;;;;;;30.70;15.65;;;;;;;;;;6213176;23;20004;-81
2022/01/31 10:02:11;;;;;;;51.25;24.08;;;;;;;;;;6213216;23;19997;-75
2022/01/31 10:04:38;;;;;;;33.22;13.85;;;;;;;;;;6187147;23;20328;-76
2022/01/31 10:07:05;;;;;;;37.50;17.52;;;;;;;;;;6213174;23;19996;-77
2022/01/31 10:09:32;;;;;;;28.70;13.60;;;;;;;;;;6211553;23;19997;-76
2022/01/31 10:12:07;;;;;;;32.53;17.48;;;;;;;;;;6187805;23;20088;-77
2022/01/31 10:17:20;;;;;;;33.22;10.57;;;;;;;;;;6215574;23;20124;-77
2022/01/31 10:19:46;;;;;;;38.83;13.80;;;;;;;;;;6188451;23;20001;-76
2022/01/31 10:22:14;;;;;;;23.27;10.15;;;;;;;;;;6215823;23;20123;-77
2022/01/31 10:24:42;;;;;;;32.05;9.95;;;;;;;;;;6215483;23;20076;-76
2022/01/31 10:27:13;;;;;;;23.30;10.27;;;;;;;;;;6189118;23;20009;-75
2022/01/31 10:29:40;;;;;;;20.20;10.60;;;;;;;;;;6215712;23;19993;-76
2022/01/31 10:32:06;;;;;;;20.10;9.05;;;;;;;;;;6188778;23;20322;-75
2022/01/31 10:34:37;;;;;;;22.00;10.35;;;;;;;;;;6189194;23;20000;-78
2022/01/31 10:37:09;;;;;;;27.30;7.65;;;;;;;;;;6214703;23;20486;-76
2022/01/31 10:50:51;;;;;;;29.77;9.13;;;;;;;;;;6215178;23;20015;-77
2022/01/31 10:53:17;;;;;;;29.50;10.02;;;;;;;;;;6188780;23;20325;-75
2022/01/31 10:55:52;;;;;;;18.75;7.47;;;;;;;;;;6214895;23;20058;-76
2022/01/31 10:58:19;;;;;;;28.40;9.68;;;;;;;;;;6215055;23;20391;-75
2022/01/31 11:00:45;;;;;;;19.85;9.13;;;;;;;;;;6188697;23;20012;-76
2022/01/31 11:03:31;;;;;;;32.03;8.43;;;;;;;;;;6214383;23;20488;-75
2022/01/31 11:05:57;;;;;;;13.63;6.68;;;;;;;;;;6216488;23;19997;-77
2022/01/31 11:08:23;;;;;;;20.65;7.30;;;;;;;;;;6213665;23;20075;-77
2022/01/31 11:10:49;;;;;;;18.10;7.25;;;;;;;;;;6188196;23;20084;-77
2022/01/31 11:13:17;;;;;;;22.83;9.30;;;;;;;;;;6215506;23;20001;-76
2022/01/31 11:15:43;;;;;;;21.10;8.93;;;;;;;;;;6215217;23;20028;-77
2022/01/31 11:18:11;;;;;;;16.63;6.45;;;;;;;;;;6189043;23;20000;-79
2022/01/31 11:20:42;;;;;;;21.13;8.95;;;;;;;;;;6215269;23;20003;-75
2022/01/31 11:23:09;;;;;;;19.02;8.13;;;;;;;;;;6188212;23;20000;-76
2022/01/31 11:25:39;;;;;;;19.83;8.60;;;;;;;;;;6188860;23;20099;-78
2022/01/31 11:28:05;;;;;;;21.55;9.63;;;;;;;;;;6215238;23;20003;-78
2022/01/31 11:30:32;;;;;;;14.48;6.03;;;;;;;;;;6215225;23;20071;-77
2022/01/31 11:32:58;;;;;;;26.25;8.55;;;;;;;;;;6188793;23;20017;-78
2022/01/31 11:35:24;;;;;;;20.42;6.93;;;;;;;;;;6188777;23;20387;-78
2022/01/31 11:37:51;;;;;;;14.68;6.55;;;;;;;;;;6188497;23;20420;-78
2022/01/31 11:40:17;;;;;;;17.90;6.82;;;;;;;;;;6215040;23;19996;-78
2022/01/31 11:42:46;;;;;;;14.05;5.65;;;;;;;;;;6215037;23;19993;-76
2022/01/31 11:45:21;;;;;;;40.00;10.18;;;;;;;;;;6215078;23;19996;-77
2022/01/31 11:47:52;;;;;;;24.33;9.20;;;;;;;;;;6188166;23;20004;-75
2022/01/31 11:50:19;;;;;;;18.60;6.30;;;;;;;;;;6215451;23;20008;-76
2022/01/31 11:52:50;;;;;;;16.88;5.72;;;;;;;;;;6214916;23;20108;-79
2022/01/31 11:55:20;;;;;;;22.80;7.85;;;;;;;;;;6214572;23;20326;-77
2022/01/31 11:57:47;;;;;;;17.70;7.03;;;;;;;;;;6214062;23;20004;-77
2022/01/31 12:00:14;;;;;;;22.60;9.25;;;;;;;;;;6187772;23;20401;-76
2022/01/31 12:02:43;;;;;;;16.25;6.55;;;;;;;;;;6214748;23;20099;-80
2022/01/31 12:05:12;;;;;;;21.85;10.02;;;;;;;;;;6214424;23;20340;-77
2022/01/31 12:07:39;;;;;;;16.35;6.90;;;;;;;;;;6214541;23;20011;-77
2022/01/31 12:10:07;;;;;;;16.10;6.72;;;;;;;;;;6214486;23;20095;-78
2022/01/31 12:12:44;;;;;;;37.00;8.38;;;;;;;;;;6214347;23;20016;-77
2022/01/31 12:18:40;;;;;;;23.45;6.78;;;;;;;;;;6213800;23;20498;-75
2022/01/31 12:23:55;;;;;;;23.50;8.70;;;;;;;;;;6214190;23;20063;-78
2022/01/31 12:26:30;;;;;;;23.85;7.85;;;;;;;;;;6214262;23;20008;-76
2022/01/31 12:28:57;;;;;;;18.50;9.52;;;;;;;;;;6213924;23;20360;-75
2022/01/31 12:31:34;;;;;;;16.85;7.78;;;;;;;;;;6187614;23;20009;-77
2022/01/31 12:34:00;;;;;;;17.33;8.05;;;;;;;;;;6213987;23;20058;-76
2022/01/31 12:36:32;;;;;;;23.45;8.60;;;;;;;;;;6214422;23;20440;-78
2022/01/31 12:38:59;;;;;;;20.83;9.25;;;;;;;;;;6214718;23;20001;-78
2022/01/31 12:41:30;;;;;;;19.95;8.93;;;;;;;;;;6214487;23;20108;-79
2022/01/31 12:44:16;;;;;;;22.95;11.55;;;;;;;;;;6214431;23;20004;-77
2022/01/31 12:46:49;;;;;;;25.60;10.10;;;;;;;;;;6187200;23;20031;-77
2022/01/31 12:49:15;;;;;;;23.13;9.65;;;;;;;;;;6214322;23;19997;-79
2022/01/31 12:51:56;;;;;;;24.23;12.23;;;;;;;;;;6214234;23;20022;-77
2022/01/31 12:54:23;;;;;;;29.38;13.85;;;;;;;;;;6213941;23;19996;-79
2022/01/31 12:56:49;;;;;;;22.25;11.20;;;;;;;;;;6213259;23;20001;-76
2022/01/31 12:59:17;;;;;;;24.55;8.90;;;;;;;;;;6213490;23;19996;-79
2022/01/31 13:01:47;;;;;;;27.00;14.63;;;;;;;;;;6213274;23;20015;-78
2022/01/31 13:04:22;;;;;;;23.27;12.25;;;;;;;;;;6213794;23;20000;-77
2022/01/31 13:06:49;;;;;;;22.35;10.70;;;;;;;;;;6213229;23;20419;-78
2022/01/31 13:09:20;;;;;;;28.20;11.63;;;;;;;;;;6214224;23;20000;-78
2022/01/31 13:11:48;;;;;;;23.27;11.23;;;;;;;;;;6213836;23;20015;-78
2022/01/31 13:14:24;;;;;;;24.35;11.38;;;;;;;;;;6210687;23;19996;-78
2022/01/31 13:17:07;;;;;;;23.88;11.63;;;;;;;;;;6213712;23;20075;-79
2022/01/31 13:19:34;;;;;;;35.45;14.18;;;;;;;;;;6187418;23;20039;-77
2022/01/31 13:22:02;;;;;;;24.27;12.15;;;;;;;;;;6213368;23;20005;-77
2022/01/31 13:24:32;;;;;;;23.73;10.48;;;;;;;;;;6188094;23;20015;-76
2022/01/31 13:26:59;;;;;;;27.63;10.93;;;;;;;;;;6213997;23;20020;-76
2022/01/31 13:29:26;;;;;;;23.02;11.35;;;;;;;;;;6213153;23;19993;-77
2022/01/31 13:31:52;;;;;;;19.70;10.35;;;;;;;;;;6213296;23;20009;-80
2022/01/31 13:34:43;;;;;;;24.50;9.88;;;;;;;;;;6213050;23;20027;-77
2022/01/31 13:37:28;;;;;;;27.98;12.55;;;;;;;;;;6213823;23;20048;-77
2022/01/31 13:39:58;;;;;;;34.15;14.93;;;;;;;;;;6214542;23;19997;-79
2022/01/31 13:42:28;;;;;;;29.83;14.27;;;;;;;;;;6213722;23;20517;-78
2022/01/31 13:44:56;;;;;;;20.05;11.90;;;;;;;;;;6187342;23;19992;-78
2022/01/31 13:47:39;;;;;;;30.10;13.93;;;;;;;;;;6186940;23;20001;-77
2022/01/31 13:50:24;;;;;;;34.78;13.52;;;;;;;;;;6186771;23;20055;-78
2022/01/31 13:53:05;;;;;;;28.67;12.98;;;;;;;;;;6213917;23;20009;-78
2022/01/31 13:55:31;;;;;;;37.92;16.38;;;;;;;;;;6187703;23;20320;-79
2022/01/31 13:57:58;;;;;;;32.78;15.32;;;;;;;;;;6185592;23;20450;-79
2022/01/31 14:00:27;;;;;;;34.55;17.73;;;;;;;;;;6213235;23;20100;-78
2022/01/31 14:03:02;;;;;;;40.92;19.27;;;;;;;;;;6213358;23;20084;-79
2022/01/31 14:05:28;;;;;;;38.00;18.00;;;;;;;;;;6213932;23;20079;-79
2022/01/31 14:08:02;;;;;;;28.75;13.95;;;;;;;;;;6187268;23;20000;-77
2022/01/31 14:10:31;;;;;;;;;;;;;;;;;;6214419;23;19997;-77
2022/01/31 14:12:58;;;;;;;43.58;18.23;;;;;;;;;;6213706;23;19908;-78
2022/01/31 14:15:24;;;;;;;32.80;15.65;;;;;;;;;;6213275;23;20325;-77
2022/01/31 14:17:51;;;;;;;32.65;15.25;;;;;;;;;;6213708;23;19993;-77
2022/01/31 14:20:19;;;;;;;33.63;14.88;;;;;;;;;;6213417;23;19997;-78
2022/01/31 14:22:45;;;;;;;28.08;13.18;;;;;;;;;;6213803;23;19997;-78
2022/01/31 14:25:12;;;;;;;36.08;14.15;;;;;;;;;;6186936;23;20016;-77